sensor_id;sensor_type;location;lat;lon;timestamp;pressure;altitude;pressure_sealevel;temperature;humidity
22550;BME280;11441;57.164;-2.120;2023-02-28T00:01:43;103353.75;;;6.04;100.00
22550;BME280;11441;57.164;-2.120;2023-02-28T00:04:10;103354.75;;;5.98;100.00
22550;BME280;11441;57.164;-2.120;2023-02-28T00:06:36;103352.03;;;5.98;100.00
22550;BME280;11441;57.164;-2.120;2023-02-28T00:09:04;103348.31;;;6.10;100.00
22550;BME280;11441;57.164;-2.120;2023-02-28T00:11:30;103365.69;;;5.98;100.00
22550;BME280;11441;57.164;-2.120;2023-02-28T00:14:14;103367.16;;;6.06;100.00
22550;BME280;11441;57.164;-2.120;2023-02-28T00:16:41;103372.97;;;5.88;100.00
22550;BME280;11441;57.164;-2.120;2023-02-28T00:19:08;103356.34;;;5.94;100.00
22550;BME280;11441;57.164;-2.120;2023-02-28T00:21:35;103358.06;;;6.00;100.00
22550;BME280;11441;57.164;-2.120;2023-02-28T00:24:02;103364.81;;;5.93;100.00
22550;BME280;11441;57.164;-2.120;2023-02-28T00:26:29;103356.22;;;6.06;100.00
22550;BME280;11441;57.164;-2.120;2023-02-28T00:29:14;103372.53;;;5.96;100.00
22550;BME280;11441;57.164;-2.120;2023-02-28T00:32:00;103377.88;;;5.85;100.00
22550;BME280;11441;57.164;-2.120;2023-02-28T00:34:27;103372.66;;;5.84;100.00
22550;BME280;11441;57.164;-2.120;2023-02-28T00:36:54;103374.34;;;5.90;100.00
22550;BME280;11441;57.164;-2.120;2023-02-28T00:39:21;103374.22;;;5.80;100.00
22550;BME280;11441;57.164;-2.120;2023-02-28T00:41:48;103369.72;;;5.91;100.00
22550;BME280;11441;57.164;-2.120;2023-02-28T00:44:15;103372.09;;;5.82;100.00
22550;BME280;11441;57.164;-2.120;2023-02-28T00:46:42;103371.84;;;5.83;100.00
22550;BME280;11441;57.164;-2.120;2023-02-28T00:49:09;103370.56;;;5.69;100.00
22550;BME280;11441;57.164;-2.120;2023-02-28T00:51:35;103369.00;;;5.73;100.00
22550;BME280;11441;57.164;-2.120;2023-02-28T00:54:02;103368.44;;;5.76;100.00
22550;BME280;11441;57.164;-2.120;2023-02-28T00:56:29;103368.13;;;5.73;100.00
22550;BME280;11441;57.164;-2.120;2023-02-28T00:58:56;103364.94;;;5.81;100.00
22550;BME280;11441;57.164;-2.120;2023-02-28T01:01:23;103354.22;;;5.74;100.00
22550;BME280;11441;57.164;-2.120;2023-02-28T01:03:50;103354.72;;;5.71;100.00
22550;BME280;11441;57.164;-2.120;2023-02-28T01:06:17;103376.16;;;5.79;100.00
22550;BME280;11441;57.164;-2.120;2023-02-28T01:08:43;103375.38;;;5.84;100.00
22550;BME280;11441;57.164;-2.120;2023-02-28T01:11:12;103377.25;;;5.78;100.00
22550;BME280;11441;57.164;-2.120;2023-02-28T01:13:40;103376.44;;;5.83;100.00
22550;BME280;11441;57.164;-2.120;2023-02-28T01:16:06;103381.44;;;5.64;100.00
22550;BME280;11441;57.164;-2.120;2023-02-28T01:18:34;103365.28;;;5.62;100.00
22550;BME280;11441;57.164;-2.120;2023-02-28T01:21:10;103374.84;;;5.60;100.00
22550;BME280;11441;57.164;-2.120;2023-02-28T01:23:37;103367.72;;;5.59;100.00
22550;BME280;11441;57.164;-2.120;2023-02-28T01:26:22;103369.63;;;5.58;100.00
22550;BME280;11441;57.164;-2.120;2023-02-28T01:28:50;103372.06;;;5.55;100.00
22550;BME280;11441;57.164;-2.120;2023-02-28T01:31:19;103373.19;;;5.59;100.00
22550;BME280;11441;57.164;-2.120;2023-02-28T01:33:48;103368.88;;;5.63;100.00
22550;BME280;11441;57.164;-2.120;2023-02-28T01:36:18;103376.50;;;5.61;100.00
22550;BME280;11441;57.164;-2.120;2023-02-28T01:38:46;103371.53;;;5.58;100.00
22550;BME280;11441;57.164;-2.120;2023-02-28T01:41:17;103367.63;;;5.76;100.00
22550;BME280;11441;57.164;-2.120;2023-02-28T01:46:12;103369.88;;;5.57;100.00
22550;BME280;11441;57.164;-2.120;2023-02-28T01:51:33;103367.09;;;5.52;100.00
22550;BME280;11441;57.164;-2.120;2023-02-28T01:54:07;103373.72;;;5.56;100.00
22550;BME280;11441;57.164;-2.120;2023-02-28T01:56:53;103361.69;;;5.57;100.00
22550;BME280;11441;57.164;-2.120;2023-02-28T01:59:35;103374.97;;;5.48;100.00
22550;BME280;11441;57.164;-2.120;2023-02-28T02:02:22;103359.34;;;5.43;100.00
22550;BME280;11441;57.164;-2.120;2023-02-28T02:05:03;103367.56;;;5.43;100.00
22550;BME280;11441;57.164;-2.120;2023-02-28T02:07:39;103369.81;;;5.52;100.00
22550;BME280;11441;57.164;-2.120;2023-02-28T02:10:13;103372.97;;;5.38;100.00
22550;BME280;11441;57.164;-2.120;2023-02-28T02:15:26;103371.16;;;5.49;100.00
22550;BME280;11441;57.164;-2.120;2023-02-28T02:19:01;103367.03;;;5.46;100.00
22550;BME280;11441;57.164;-2.120;2023-02-28T02:32:28;103372.28;;;5.31;100.00
22550;BME280;11441;57.164;-2.120;2023-02-28T02:37:59;103372.03;;;5.33;100.00
22550;BME280;11441;57.164;-2.120;2023-02-28T02:40:54;103368.44;;;5.27;100.00
22550;BME280;11441;57.164;-2.120;2023-02-28T02:43:32;103359.66;;;5.25;100.00
22550;BME280;11441;57.164;-2.120;2023-02-28T02:46:14;103370.28;;;5.21;100.00
22550;BME280;11441;57.164;-2.120;2023-02-28T02:48:45;103360.72;;;5.24;100.00
22550;BME280;11441;57.164;-2.120;2023-02-28T02:51:18;103362.28;;;5.37;100.00
22550;BME280;11441;57.164;-2.120;2023-02-28T02:53:55;103368.25;;;5.34;100.00
22550;BME280;11441;57.164;-2.120;2023-02-28T02:56:27;103359.97;;;5.51;100.00
22550;BME280;11441;57.164;-2.120;2023-02-28T02:58:59;103362.09;;;5.43;100.00
22550;BME280;11441;57.164;-2.120;2023-02-28T03:01:30;103366.47;;;5.44;100.00
22550;BME280;11441;57.164;-2.120;2023-02-28T03:04:06;103369.56;;;5.53;100.00
22550;BME280;11441;57.164;-2.120;2023-02-28T03:06:34;103361.38;;;5.53;100.00
22550;BME280;11441;57.164;-2.120;2023-02-28T03:09:02;103361.72;;;5.35;100.00
22550;BME280;11441;57.164;-2.120;2023-02-28T03:11:29;103356.63;;;5.21;100.00
22550;BME280;11441;57.164;-2.120;2023-02-28T03:20:26;103368.19;;;5.28;100.00
22550;BME280;11441;57.164;-2.120;2023-02-28T03:23:52;103361.66;;;5.29;100.00
22550;BME280;11441;57.164;-2.120;2023-02-28T03:26:23;103357.44;;;5.22;100.00
22550;BME280;11441;57.164;-2.120;2023-02-28T03:29:08;103359.28;;;5.16;100.00
22550;BME280;11441;57.164;-2.120;2023-02-28T03:31:47;103363.34;;;5.14;100.00
22550;BME280;11441;57.164;-2.120;2023-02-28T03:34:29;103369.25;;;5.05;100.00
22550;BME280;11441;57.164;-2.120;2023-02-28T03:37:08;103365.19;;;5.08;100.00
22550;BME280;11441;57.164;-2.120;2023-02-28T03:39:41;103372.63;;;5.13;100.00
22550;BME280;11441;57.164;-2.120;2023-02-28T03:44:45;103374.72;;;5.05;100.00
22550;BME280;11441;57.164;-2.120;2023-02-28T03:47:17;103373.31;;;4.86;100.00
22550;BME280;11441;57.164;-2.120;2023-02-28T03:52:22;103368.88;;;4.97;100.00
22550;BME280;11441;57.164;-2.120;2023-02-28T03:54:55;103366.16;;;4.80;100.00
22550;BME280;11441;57.164;-2.120;2023-02-28T04:00:31;103374.91;;;4.82;100.00
22550;BME280;11441;57.164;-2.120;2023-02-28T04:03:01;103371.94;;;4.66;100.00
22550;BME280;11441;57.164;-2.120;2023-02-28T04:05:29;103374.84;;;4.77;100.00
22550;BME280;11441;57.164;-2.120;2023-02-28T04:08:06;103375.94;;;4.76;100.00
22550;BME280;11441;57.164;-2.120;2023-02-28T04:10:33;103371.28;;;4.93;100.00
22550;BME280;11441;57.164;-2.120;2023-02-28T04:13:00;103371.97;;;5.05;100.00
22550;BME280;11441;57.164;-2.120;2023-02-28T04:15:27;103371.13;;;4.83;100.00
22550;BME280;11441;57.164;-2.120;2023-02-28T04:17:54;103370.19;;;4.94;100.00
22550;BME280;11441;57.164;-2.120;2023-02-28T04:20:21;103365.25;;;4.74;100.00
22550;BME280;11441;57.164;-2.120;2023-02-28T04:22:47;103373.28;;;4.81;100.00
22550;BME280;11441;57.164;-2.120;2023-02-28T04:25:14;103374.16;;;5.03;100.00
22550;BME280;11441;57.164;-2.120;2023-02-28T04:27:41;103366.31;;;4.90;100.00
22550;BME280;11441;57.164;-2.120;2023-02-28T04:30:11;103354.97;;;4.81;100.00
22550;BME280;11441;57.164;-2.120;2023-02-28T04:32:38;103372.50;;;4.85;100.00
22550;BME280;11441;57.164;-2.120;2023-02-28T04:35:05;103344.63;;;4.83;100.00
22550;BME280;11441;57.164;-2.120;2023-02-28T04:37:32;103355.72;;;4.77;100.00
22550;BME280;11441;57.164;-2.120;2023-02-28T04:40:01;103349.44;;;4.76;100.00
22550;BME280;11441;57.164;-2.120;2023-02-28T04:42:29;103348.31;;;4.72;100.00
22550;BME280;11441;57.164;-2.120;2023-02-28T04:45:02;103346.53;;;4.83;100.00
22550;BME280;11441;57.164;-2.120;2023-02-28T04:47:30;103357.97;;;4.80;100.00
22550;BME280;11441;57.164;-2.120;2023-02-28T04:49:57;103354.81;;;4.88;100.00
22550;BME280;11441;57.164;-2.120;2023-02-28T04:52:24;103353.22;;;4.92;100.00
22550;BME280;11441;57.164;-2.120;2023-02-28T04:54:51;103360.53;;;4.86;100.00
22550;BME280;11441;57.164;-2.120;2023-02-28T04:57:18;103360.19;;;4.83;100.00
22550;BME280;11441;57.164;-2.120;2023-02-28T04:59:44;103362.94;;;4.83;100.00
22550;BME280;11441;57.164;-2.120;2023-02-28T05:02:11;103359.56;;;4.76;100.00
22550;BME280;11441;57.164;-2.120;2023-02-28T05:04:38;103359.34;;;4.82;100.00
22550;BME280;11441;57.164;-2.120;2023-02-28T05:07:05;103360.44;;;4.81;100.00
22550;BME280;11441;57.164;-2.120;2023-02-28T05:09:32;103364.72;;;4.94;100.00
22550;BME280;11441;57.164;-2.120;2023-02-28T05:11:59;103370.66;;;4.69;100.00
22550;BME280;11441;57.164;-2.120;2023-02-28T05:14:45;103364.81;;;4.82;100.00
22550;BME280;11441;57.164;-2.120;2023-02-28T05:17:11;103364.50;;;4.79;100.00
22550;BME280;11441;57.164;-2.120;2023-02-28T05:19:38;103374.59;;;4.78;100.00
22550;BME280;11441;57.164;-2.120;2023-02-28T05:22:15;103374.84;;;4.77;100.00
22550;BME280;11441;57.164;-2.120;2023-02-28T05:24:43;103380.31;;;4.77;100.00
22550;BME280;11441;57.164;-2.120;2023-02-28T05:27:10;103374.53;;;4.56;100.00
22550;BME280;11441;57.164;-2.120;2023-02-28T05:29:37;103380.47;;;4.87;100.00
22550;BME280;11441;57.164;-2.120;2023-02-28T05:32:10;103374.28;;;4.75;100.00
22550;BME280;11441;57.164;-2.120;2023-02-28T05:34:38;103367.38;;;4.89;100.00
22550;BME280;11441;57.164;-2.120;2023-02-28T05:37:24;103371.78;;;4.73;100.00
22550;BME280;11441;57.164;-2.120;2023-02-28T05:39:51;103381.78;;;4.84;100.00
22550;BME280;11441;57.164;-2.120;2023-02-28T05:42:17;103369.28;;;4.88;100.00
22550;BME280;11441;57.164;-2.120;2023-02-28T05:44:44;103375.41;;;4.79;100.00
22550;BME280;11441;57.164;-2.120;2023-02-28T05:47:29;103370.88;;;4.67;100.00
22550;BME280;11441;57.164;-2.120;2023-02-28T05:49:56;103365.66;;;4.83;100.00
22550;BME280;11441;57.164;-2.120;2023-02-28T05:52:23;103368.88;;;4.80;100.00
22550;BME280;11441;57.164;-2.120;2023-02-28T05:54:50;103366.56;;;4.71;100.00
22550;BME280;11441;57.164;-2.120;2023-02-28T05:57:16;103364.50;;;4.79;100.00
22550;BME280;11441;57.164;-2.120;2023-02-28T05:59:50;103364.31;;;4.85;100.00
22550;BME280;11441;57.164;-2.120;2023-02-28T06:02:17;103361.44;;;4.75;100.00
22550;BME280;11441;57.164;-2.120;2023-02-28T06:04:45;103361.19;;;4.77;100.00
22550;BME280;11441;57.164;-2.120;2023-02-28T06:07:12;103366.97;;;4.80;100.00
22550;BME280;11441;57.164;-2.120;2023-02-28T06:09:38;103375.41;;;4.79;100.00
22550;BME280;11441;57.164;-2.120;2023-02-28T06:12:06;103374.09;;;4.81;100.00
22550;BME280;11441;57.164;-2.120;2023-02-28T06:14:33;103375.41;;;4.79;100.00
22550;BME280;11441;57.164;-2.120;2023-02-28T06:17:01;103371.78;;;4.90;100.00
22550;BME280;11441;57.164;-2.120;2023-02-28T06:19:28;103376.06;;;4.86;100.00
22550;BME280;11441;57.164;-2.120;2023-02-28T06:21:56;103383.19;;;4.87;100.00
22550;BME280;11441;57.164;-2.120;2023-02-28T06:24:25;103377.81;;;4.92;100.00
22550;BME280;11441;57.164;-2.120;2023-02-28T06:26:54;103380.22;;;4.88;100.00
22550;BME280;11441;57.164;-2.120;2023-02-28T06:29:21;103388.75;;;4.75;100.00
22550;BME280;11441;57.164;-2.120;2023-02-28T06:31:48;103375.25;;;4.85;100.00
22550;BME280;11441;57.164;-2.120;2023-02-28T06:34:16;103382.31;;;4.64;100.00
22550;BME280;11441;57.164;-2.120;2023-02-28T06:36:43;103390.56;;;4.69;100.00
22550;BME280;11441;57.164;-2.120;2023-02-28T06:39:10;103390.16;;;4.61;100.00
22550;BME280;11441;57.164;-2.120;2023-02-28T06:41:37;103389.19;;;4.67;100.00
22550;BME280;11441;57.164;-2.120;2023-02-28T06:44:21;103389.25;;;4.72;100.00
22550;BME280;11441;57.164;-2.120;2023-02-28T06:46:48;103389.03;;;4.57;100.00
22550;BME280;11441;57.164;-2.120;2023-02-28T06:49:15;103395.22;;;4.52;100.00
22550;BME280;11441;57.164;-2.120;2023-02-28T06:51:44;103385.03;;;4.64;100.00
22550;BME280;11441;57.164;-2.120;2023-02-28T06:54:13;103382.63;;;4.68;100.00
22550;BME280;11441;57.164;-2.120;2023-02-28T06:56:40;103387.19;;;4.62;100.00
22550;BME280;11441;57.164;-2.120;2023-02-28T06:59:07;103390.41;;;4.59;100.00
22550;BME280;11441;57.164;-2.120;2023-02-28T07:01:34;103396.44;;;4.78;100.00
22550;BME280;11441;57.164;-2.120;2023-02-28T07:04:01;103389.44;;;4.65;100.00
22550;BME280;11441;57.164;-2.120;2023-02-28T07:06:28;103403.41;;;4.69;100.00
22550;BME280;11441;57.164;-2.120;2023-02-28T07:08:55;103399.09;;;4.73;100.00
22550;BME280;11441;57.164;-2.120;2023-02-28T07:11:40;103398.75;;;4.52;100.00
22550;BME280;11441;57.164;-2.120;2023-02-28T07:14:09;103408.00;;;4.68;100.00
22550;BME280;11441;57.164;-2.120;2023-02-28T07:16:36;103403.06;;;4.65;100.00
22550;BME280;11441;57.164;-2.120;2023-02-28T07:19:03;103419.47;;;4.65;100.00
22550;BME280;11441;57.164;-2.120;2023-02-28T07:21:29;103417.13;;;4.57;100.00
22550;BME280;11441;57.164;-2.120;2023-02-28T07:23:57;103422.25;;;4.53;100.00
22550;BME280;11441;57.164;-2.120;2023-02-28T07:26:24;103423.75;;;4.61;100.00
22550;BME280;11441;57.164;-2.120;2023-02-28T07:28:51;103418.38;;;4.49;100.00
22550;BME280;11441;57.164;-2.120;2023-02-28T07:31:18;103419.34;;;4.43;100.00
22550;BME280;11441;57.164;-2.120;2023-02-28T07:33:45;103406.53;;;4.44;100.00
22550;BME280;11441;57.164;-2.120;2023-02-28T07:36:15;103429.81;;;4.63;100.00
22550;BME280;11441;57.164;-2.120;2023-02-28T07:38:43;103427.97;;;4.52;100.00
22550;BME280;11441;57.164;-2.120;2023-02-28T07:41:15;103416.72;;;4.48;100.00
22550;BME280;11441;57.164;-2.120;2023-02-28T07:43:42;103431.19;;;4.49;100.00
22550;BME280;11441;57.164;-2.120;2023-02-28T07:46:11;103429.88;;;4.51;100.00
22550;BME280;11441;57.164;-2.120;2023-02-28T07:48:38;103436.41;;;4.50;100.00
22550;BME280;11441;57.164;-2.120;2023-02-28T07:51:05;103429.13;;;4.56;100.00
22550;BME280;11441;57.164;-2.120;2023-02-28T07:53:33;103434.66;;;4.44;100.00
22550;BME280;11441;57.164;-2.120;2023-02-28T07:56:01;103428.22;;;4.50;100.00
22550;BME280;11441;57.164;-2.120;2023-02-28T07:58:29;103427.88;;;4.47;100.00
22550;BME280;11441;57.164;-2.120;2023-02-28T08:00:57;103433.34;;;4.47;100.00
22550;BME280;11441;57.164;-2.120;2023-02-28T08:03:24;103430.84;;;4.45;100.00
22550;BME280;11441;57.164;-2.120;2023-02-28T08:05:51;103439.78;;;4.58;100.00
22550;BME280;11441;57.164;-2.120;2023-02-28T08:08:19;103443.38;;;4.58;100.00
22550;BME280;11441;57.164;-2.120;2023-02-28T08:10:46;103435.56;;;4.50;100.00
22550;BME280;11441;57.164;-2.120;2023-02-28T08:13:13;103438.81;;;4.64;100.00
22550;BME280;11441;57.164;-2.120;2023-02-28T08:15:42;103439.47;;;4.71;100.00
22550;BME280;11441;57.164;-2.120;2023-02-28T08:18:09;103425.25;;;4.69;100.00
22550;BME280;11441;57.164;-2.120;2023-02-28T08:20:36;103426.47;;;4.78;100.00
22550;BME280;11441;57.164;-2.120;2023-02-28T08:23:03;103428.63;;;4.93;100.00
22550;BME280;11441;57.164;-2.120;2023-02-28T08:25:55;103423.00;;;4.83;100.00
22550;BME280;11441;57.164;-2.120;2023-02-28T08:28:23;103426.56;;;4.83;100.00
22550;BME280;11441;57.164;-2.120;2023-02-28T08:30:52;103434.91;;;4.94;100.00
22550;BME280;11441;57.164;-2.120;2023-02-28T08:33:20;103439.63;;;4.98;100.00
22550;BME280;11441;57.164;-2.120;2023-02-28T08:35:47;103445.59;;;4.95;100.00
22550;BME280;11441;57.164;-2.120;2023-02-28T08:38:13;103441.84;;;5.01;100.00
22550;BME280;11441;57.164;-2.120;2023-02-28T08:40:40;103449.28;;;5.06;100.00
22550;BME280;11441;57.164;-2.120;2023-02-28T08:43:07;103449.03;;;5.07;100.00
22550;BME280;11441;57.164;-2.120;2023-02-28T08:45:33;103458.84;;;5.03;100.00
22550;BME280;11441;57.164;-2.120;2023-02-28T08:48:00;103459.31;;;5.00;100.00
22550;BME280;11441;57.164;-2.120;2023-02-28T08:50:27;103462.78;;;5.13;100.00
22550;BME280;11441;57.164;-2.120;2023-02-28T08:52:54;103463.28;;;5.09;100.00
22550;BME280;11441;57.164;-2.120;2023-02-28T08:55:21;103467.38;;;5.29;100.00
22550;BME280;11441;57.164;-2.120;2023-02-28T08:57:47;103469.03;;;5.30;100.00
22550;BME280;11441;57.164;-2.120;2023-02-28T09:00:14;103465.19;;;5.26;100.00
22550;BME280;11441;57.164;-2.120;2023-02-28T09:03:00;103468.31;;;5.35;100.00
22550;BME280;11441;57.164;-2.120;2023-02-28T09:05:27;103472.44;;;5.37;100.00
22550;BME280;11441;57.164;-2.120;2023-02-28T09:08:16;103460.22;;;5.45;100.00
22550;BME280;11441;57.164;-2.120;2023-02-28T09:10:42;103455.28;;;5.42;100.00
22550;BME280;11441;57.164;-2.120;2023-02-28T09:13:28;103458.72;;;5.54;100.00
22550;BME280;11441;57.164;-2.120;2023-02-28T09:16:00;103455.25;;;5.64;100.00
22550;BME280;11441;57.164;-2.120;2023-02-28T09:18:27;103464.38;;;5.47;100.00
22550;BME280;11441;57.164;-2.120;2023-02-28T09:20:54;103462.19;;;5.50;100.00
22550;BME280;11441;57.164;-2.120;2023-02-28T09:23:21;103468.00;;;5.53;100.00
22550;BME280;11441;57.164;-2.120;2023-02-28T09:25:51;103457.63;;;5.55;100.00
22550;BME280;11441;57.164;-2.120;2023-02-28T09:28:19;103479.94;;;5.47;100.00
22550;BME280;11441;57.164;-2.120;2023-02-28T09:30:51;103473.34;;;5.65;100.00
22550;BME280;11441;57.164;-2.120;2023-02-28T09:33:18;103469.53;;;5.66;100.00
22550;BME280;11441;57.164;-2.120;2023-02-28T09:36:07;103479.50;;;5.77;100.00
22550;BME280;11441;57.164;-2.120;2023-02-28T09:38:34;103472.66;;;5.75;100.00
22550;BME280;11441;57.164;-2.120;2023-02-28T09:41:27;103478.94;;;5.75;100.00
22550;BME280;11441;57.164;-2.120;2023-02-28T09:44:43;103477.84;;;5.76;100.00
22550;BME280;11441;57.164;-2.120;2023-02-28T09:47:39;103486.66;;;5.78;100.00
22550;BME280;11441;57.164;-2.120;2023-02-28T09:52:54;103486.13;;;5.81;100.00
22550;BME280;11441;57.164;-2.120;2023-02-28T09:55:34;103490.56;;;5.88;100.00
22550;BME280;11441;57.164;-2.120;2023-02-28T09:59:01;103493.63;;;5.91;100.00
22550;BME280;11441;57.164;-2.120;2023-02-28T10:01:31;103491.06;;;6.01;100.00
22550;BME280;11441;57.164;-2.120;2023-02-28T10:07:23;103490.91;;;6.13;100.00
22550;BME280;11441;57.164;-2.120;2023-02-28T10:09:59;103491.59;;;6.26;100.00
22550;BME280;11441;57.164;-2.120;2023-02-28T10:12:47;103485.22;;;6.20;100.00
22550;BME280;11441;57.164;-2.120;2023-02-28T10:15:16;103495.16;;;6.26;100.00
22550;BME280;11441;57.164;-2.120;2023-02-28T10:17:47;103497.88;;;6.26;100.00
22550;BME280;11441;57.164;-2.120;2023-02-28T10:20:37;103506.91;;;6.27;100.00
22550;BME280;11441;57.164;-2.120;2023-02-28T10:26:17;103503.88;;;6.23;100.00
22550;BME280;11441;57.164;-2.120;2023-02-28T10:28:44;103506.78;;;6.38;100.00
22550;BME280;11441;57.164;-2.120;2023-02-28T10:31:18;103495.50;;;6.35;100.00
22550;BME280;11441;57.164;-2.120;2023-02-28T10:34:03;103499.75;;;6.20;100.00
22550;BME280;11441;57.164;-2.120;2023-02-28T10:36:32;103498.31;;;6.40;100.00
22550;BME280;11441;57.164;-2.120;2023-02-28T10:39:41;103498.00;;;6.64;100.00
22550;BME280;11441;57.164;-2.120;2023-02-28T10:42:26;103498.16;;;6.84;100.00
22550;BME280;11441;57.164;-2.120;2023-02-28T10:45:22;103499.63;;;6.65;100.00
22550;BME280;11441;57.164;-2.120;2023-02-28T10:53:30;103505.59;;;6.89;100.00
22550;BME280;11441;57.164;-2.120;2023-02-28T11:03:59;103497.03;;;6.80;100.00
22550;BME280;11441;57.164;-2.120;2023-02-28T11:06:30;103493.38;;;6.69;100.00
22550;BME280;11441;57.164;-2.120;2023-02-28T11:09:00;103495.44;;;6.89;100.00
22550;BME280;11441;57.164;-2.120;2023-02-28T11:11:30;103496.00;;;6.91;100.00
22550;BME280;11441;57.164;-2.120;2023-02-28T11:14:04;103490.81;;;6.90;100.00
22550;BME280;11441;57.164;-2.120;2023-02-28T11:16:37;103485.59;;;6.88;100.00
22550;BME280;11441;57.164;-2.120;2023-02-28T11:19:06;103493.50;;;6.85;100.00
22550;BME280;11441;57.164;-2.120;2023-02-28T11:21:50;103488.94;;;6.95;100.00
22550;BME280;11441;57.164;-2.120;2023-02-28T11:24:27;103493.50;;;6.85;100.00
22550;BME280;11441;57.164;-2.120;2023-02-28T11:27:49;103499.13;;;7.05;100.00
22550;BME280;11441;57.164;-2.120;2023-02-28T11:30:25;103489.44;;;6.92;100.00
22550;BME280;11441;57.164;-2.120;2023-02-28T11:32:52;103503.63;;;6.84;100.00
22550;BME280;11441;57.164;-2.120;2023-02-28T11:35:26;103502.94;;;6.99;100.00
22550;BME280;11441;57.164;-2.120;2023-02-28T11:37:53;103501.09;;;7.10;100.00
22550;BME280;11441;57.164;-2.120;2023-02-28T11:40:46;103504.72;;;7.21;100.00
22550;BME280;11441;57.164;-2.120;2023-02-28T11:46:43;103499.78;;;7.17;100.00
22550;BME280;11441;57.164;-2.120;2023-02-28T12:06:18;103489.94;;;7.22;100.00
22550;BME280;11441;57.164;-2.120;2023-02-28T12:16:59;103497.50;;;7.04;100.00
22550;BME280;11441;57.164;-2.120;2023-02-28T12:19:44;103495.88;;;7.08;100.00
22550;BME280;11441;57.164;-2.120;2023-02-28T12:22:28;103492.44;;;6.91;100.00
22550;BME280;11441;57.164;-2.120;2023-02-28T12:27:46;103492.06;;;6.77;100.00
22550;BME280;11441;57.164;-2.120;2023-02-28T12:30:31;103484.19;;;6.86;100.00
22550;BME280;11441;57.164;-2.120;2023-02-28T12:33:09;103488.69;;;6.97;100.00
22550;BME280;11441;57.164;-2.120;2023-02-28T12:38:26;103497.31;;;6.84;100.00
22550;BME280;11441;57.164;-2.120;2023-02-28T12:41:01;103484.34;;;6.74;100.00
22550;BME280;11441;57.164;-2.120;2023-02-28T12:43:33;103486.13;;;6.85;100.00
22550;BME280;11441;57.164;-2.120;2023-02-28T12:46:12;103485.03;;;6.86;100.00
22550;BME280;11441;57.164;-2.120;2023-02-28T12:48:47;103475.97;;;6.86;100.00
22550;BME280;11441;57.164;-2.120;2023-02-28T12:51:16;103469.03;;;6.73;100.00
22550;BME280;11441;57.164;-2.120;2023-02-28T12:56:24;103473.94;;;6.71;100.00
22550;BME280;11441;57.164;-2.120;2023-02-28T13:02:32;103477.72;;;6.97;100.00
22550;BME280;11441;57.164;-2.120;2023-02-28T13:10:18;103474.44;;;7.00;100.00
22550;BME280;11441;57.164;-2.120;2023-02-28T13:12:53;103469.56;;;7.07;100.00
22550;BME280;11441;57.164;-2.120;2023-02-28T13:15:25;103481.81;;;6.99;100.00
22550;BME280;11441;57.164;-2.120;2023-02-28T13:17:56;103478.28;;;6.99;100.00
22550;BME280;11441;57.164;-2.120;2023-02-28T13:20:27;103482.50;;;7.17;100.00
22550;BME280;11441;57.164;-2.120;2023-02-28T13:22:56;103482.72;;;7.10;100.00
22550;BME280;11441;57.164;-2.120;2023-02-28T13:28:09;103475.31;;;7.06;100.00
22550;BME280;11441;57.164;-2.120;2023-02-28T13:38:49;103469.03;;;7.10;100.00
22550;BME280;11441;57.164;-2.120;2023-02-28T13:49:29;103464.75;;;6.87;100.00
22550;BME280;11441;57.164;-2.120;2023-02-28T14:05:39;103461.28;;;6.65;100.00
22550;BME280;11441;57.164;-2.120;2023-02-28T14:08:25;103457.59;;;6.49;100.00
22550;BME280;11441;57.164;-2.120;2023-02-28T14:11:08;103457.69;;;6.59;100.00
22550;BME280;11441;57.164;-2.120;2023-02-28T14:13:44;103451.09;;;6.60;100.00
22550;BME280;11441;57.164;-2.120;2023-02-28T14:16:48;103452.03;;;6.71;100.00
22550;BME280;11441;57.164;-2.120;2023-02-28T14:19:13;103454.00;;;6.80;100.00
22550;BME280;11441;57.164;-2.120;2023-02-28T14:21:56;103444.16;;;6.79;100.00
22550;BME280;11441;57.164;-2.120;2023-02-28T14:24:40;103446.69;;;6.91;100.00
22550;BME280;11441;57.164;-2.120;2023-02-28T14:32:46;103441.50;;;6.90;100.00
22550;BME280;11441;57.164;-2.120;2023-02-28T14:38:14;103438.53;;;7.02;100.00
22550;BME280;11441;57.164;-2.120;2023-02-28T14:40:44;103421.94;;;7.18;100.00
22550;BME280;11441;57.164;-2.120;2023-02-28T14:43:31;103426.03;;;7.16;100.00
22550;BME280;11441;57.164;-2.120;2023-02-28T14:46:02;103423.78;;;7.08;100.00
22550;BME280;11441;57.164;-2.120;2023-02-28T14:48:30;103422.69;;;7.09;100.00
22550;BME280;11441;57.164;-2.120;2023-02-28T14:50:59;103414.50;;;7.14;100.00
22550;BME280;11441;57.164;-2.120;2023-02-28T14:53:30;103425.75;;;7.12;100.00
22550;BME280;11441;57.164;-2.120;2023-02-28T14:56:26;103416.31;;;6.98;100.00
22550;BME280;11441;57.164;-2.120;2023-02-28T14:58:55;103421.56;;;7.05;100.00
22550;BME280;11441;57.164;-2.120;2023-02-28T15:01:24;103426.97;;;7.37;100.00
22550;BME280;11441;57.164;-2.120;2023-02-28T15:04:25;103414.56;;;7.24;100.00
22550;BME280;11441;57.164;-2.120;2023-02-28T15:07:15;103427.25;;;7.41;100.00
22550;BME280;11441;57.164;-2.120;2023-02-28T15:09:42;103433.75;;;7.24;100.00
22550;BME280;11441;57.164;-2.120;2023-02-28T15:12:13;103424.75;;;7.34;100.00
22550;BME280;11441;57.164;-2.120;2023-02-28T15:14:43;103429.41;;;7.28;100.00
22550;BME280;11441;57.164;-2.120;2023-02-28T15:17:21;103426.88;;;7.22;100.00
22550;BME280;11441;57.164;-2.120;2023-02-28T15:19:52;103419.44;;;7.17;100.00
22550;BME280;11441;57.164;-2.120;2023-02-28T15:22:37;103432.13;;;7.28;100.00
22550;BME280;11441;57.164;-2.120;2023-02-28T15:25:05;103429.13;;;7.30;100.00
22550;BME280;11441;57.164;-2.120;2023-02-28T15:27:52;103405.66;;;7.02;100.00
22550;BME280;11441;57.164;-2.120;2023-02-28T15:30:25;103413.41;;;7.15;100.00
22550;BME280;11441;57.164;-2.120;2023-02-28T15:33:25;103431.16;;;7.02;100.00
22550;BME280;11441;57.164;-2.120;2023-02-28T15:38:36;103439.91;;;6.99;100.00